sensor_id;sensor_type;location;lat;lon;timestamp;P1;durP1;ratioP1;P2;durP2;ratioP2
22904;SDS011;11619;50.140;8.518;2023-01-29T00:00:10;5.82;;;4.10;;
22904;SDS011;11619;50.140;8.518;2023-01-29T00:02:37;4.43;;;4.03;;
22904;SDS011;11619;50.140;8.518;2023-01-29T00:05:04;5.47;;;4.07;;
22904;SDS011;11619;50.140;8.518;2023-01-29T00:07:52;4.50;;;4.10;;
22904;SDS011;11619;50.140;8.518;2023-01-29T00:10:18;4.10;;;3.80;;
22904;SDS011;11619;50.140;8.518;2023-01-29T00:12:45;4.07;;;3.67;;
22904;SDS011;11619;50.140;8.518;2023-01-29T00:15:11;4.40;;;3.63;;
22904;SDS011;11619;50.140;8.518;2023-01-29T00:17:37;4.32;;;3.92;;
22904;SDS011;11619;50.140;8.518;2023-01-29T00:20:04;5.07;;;3.63;;
22904;SDS011;11619;50.140;8.518;2023-01-29T00:22:31;4.53;;;3.78;;
22904;SDS011;11619;50.140;8.518;2023-01-29T00:24:57;3.97;;;3.67;;
22904;SDS011;11619;50.140;8.518;2023-01-29T00:27:24;4.47;;;3.88;;
22904;SDS011;11619;50.140;8.518;2023-01-29T00:29:50;4.10;;;3.80;;
22904;SDS011;11619;50.140;8.518;2023-01-29T00:32:34;4.47;;;4.07;;
22904;SDS011;11619;50.140;8.518;2023-01-29T00:35:01;5.72;;;4.00;;
22904;SDS011;11619;50.140;8.518;2023-01-29T00:37:27;3.92;;;3.63;;
22904;SDS011;11619;50.140;8.518;2023-01-29T00:39:55;4.72;;;4.28;;
22904;SDS011;11619;50.140;8.518;2023-01-29T00:42:21;4.65;;;4.15;;
22904;SDS011;11619;50.140;8.518;2023-01-29T00:45:10;4.45;;;4.05;;
22904;SDS011;11619;50.140;8.518;2023-01-29T00:47:37;4.60;;;4.20;;
22904;SDS011;11619;50.140;8.518;2023-01-29T00:50:04;5.10;;;4.63;;
22904;SDS011;11619;50.140;8.518;2023-01-29T00:52:33;4.60;;;4.20;;
22904;SDS011;11619;50.140;8.518;2023-01-29T00:55:02;6.40;;;4.55;;
22904;SDS011;11619;50.140;8.518;2023-01-29T00:57:30;5.05;;;4.55;;
22904;SDS011;11619;50.140;8.518;2023-01-29T00:59:59;4.45;;;4.05;;
22904;SDS011;11619;50.140;8.518;2023-01-29T01:02:25;4.88;;;4.47;;
22904;SDS011;11619;50.140;8.518;2023-01-29T01:05:12;5.28;;;4.88;;
22904;SDS011;11619;50.140;8.518;2023-01-29T01:07:44;5.80;;;4.75;;
22904;SDS011;11619;50.140;8.518;2023-01-29T01:10:17;5.68;;;4.30;;
22904;SDS011;11619;50.140;8.518;2023-01-29T01:12:56;5.88;;;4.55;;
22904;SDS011;11619;50.140;8.518;2023-01-29T01:15:28;4.97;;;4.47;;
22904;SDS011;11619;50.140;8.518;2023-01-29T01:18:04;4.95;;;4.55;;
22904;SDS011;11619;50.140;8.518;2023-01-29T01:20:32;6.65;;;5.10;;
22904;SDS011;11619;50.140;8.518;2023-01-29T01:22:59;5.40;;;4.90;;
22904;SDS011;11619;50.140;8.518;2023-01-29T01:25:26;5.10;;;4.70;;
22904;SDS011;11619;50.140;8.518;2023-01-29T01:27:53;5.05;;;4.65;;
22904;SDS011;11619;50.140;8.518;2023-01-29T01:30:20;5.55;;;4.32;;
22904;SDS011;11619;50.140;8.518;2023-01-29T01:32:47;9.30;;;4.03;;
22904;SDS011;11619;50.140;8.518;2023-01-29T01:35:13;5.40;;;4.50;;
22904;SDS011;11619;50.140;8.518;2023-01-29T01:37:44;4.05;;;3.75;;
22904;SDS011;11619;50.140;8.518;2023-01-29T01:40:12;5.40;;;4.93;;
22904;SDS011;11619;50.140;8.518;2023-01-29T01:42:48;5.32;;;4.88;;
22904;SDS011;11619;50.140;8.518;2023-01-29T01:45:22;4.85;;;4.45;;
22904;SDS011;11619;50.140;8.518;2023-01-29T01:50:32;4.80;;;4.40;;
22904;SDS011;11619;50.140;8.518;2023-01-29T01:55:30;4.75;;;4.32;;
22904;SDS011;11619;50.140;8.518;2023-01-29T01:58:08;4.85;;;4.45;;
22904;SDS011;11619;50.140;8.518;2023-01-29T02:00:35;4.82;;;4.43;;
22904;SDS011;11619;50.140;8.518;2023-01-29T02:03:03;4.68;;;4.28;;
22904;SDS011;11619;50.140;8.518;2023-01-29T02:05:48;5.28;;;4.40;;
22904;SDS011;11619;50.140;8.518;2023-01-29T02:08:41;4.60;;;4.20;;
22904;SDS011;11619;50.140;8.518;2023-01-29T02:11:31;4.85;;;4.45;;
22904;SDS011;11619;50.140;8.518;2023-01-29T02:13:57;4.40;;;4.00;;
22904;SDS011;11619;50.140;8.518;2023-01-29T02:16:24;5.32;;;4.82;;
22904;SDS011;11619;50.140;8.518;2023-01-29T02:18:50;5.47;;;4.72;;
22904;SDS011;11619;50.140;8.518;2023-01-29T02:27:32;4.90;;;4.47;;
22904;SDS011;11619;50.140;8.518;2023-01-29T02:39:31;5.80;;;4.40;;
22904;SDS011;11619;50.140;8.518;2023-01-29T02:42:03;5.55;;;4.28;;
22904;SDS011;11619;50.140;8.518;2023-01-29T02:44:39;5.43;;;4.53;;
22904;SDS011;11619;50.140;8.518;2023-01-29T02:47:18;4.50;;;4.13;;
22904;SDS011;11619;50.140;8.518;2023-01-29T02:49:49;4.50;;;4.18;;
22904;SDS011;11619;50.140;8.518;2023-01-29T02:52:33;4.97;;;4.00;;
22904;SDS011;11619;50.140;8.518;2023-01-29T02:55:08;5.43;;;4.93;;
22904;SDS011;11619;50.140;8.518;2023-01-29T02:57:42;5.88;;;4.95;;
22904;SDS011;11619;50.140;8.518;2023-01-29T03:00:13;5.50;;;5.00;;
22904;SDS011;11619;50.140;8.518;2023-01-29T03:05:11;5.10;;;4.60;;
22904;SDS011;11619;50.140;8.518;2023-01-29T03:07:44;5.65;;;4.88;;
22904;SDS011;11619;50.140;8.518;2023-01-29T03:10:17;5.97;;;5.18;;
22904;SDS011;11619;50.140;8.518;2023-01-29T03:12:49;5.70;;;5.10;;
22904;SDS011;11619;50.140;8.518;2023-01-29T03:15:19;5.60;;;5.10;;
22904;SDS011;11619;50.140;8.518;2023-01-29T03:17:52;5.90;;;5.40;;
22904;SDS011;11619;50.140;8.518;2023-01-29T03:20:25;5.85;;;5.25;;
22904;SDS011;11619;50.140;8.518;2023-01-29T03:22:55;5.90;;;5.30;;
22904;SDS011;11619;50.140;8.518;2023-01-29T03:25:23;5.28;;;4.75;;
22904;SDS011;11619;50.140;8.518;2023-01-29T03:28:11;4.85;;;4.45;;
22904;SDS011;11619;50.140;8.518;2023-01-29T03:31:03;5.32;;;4.80;;
22904;SDS011;11619;50.140;8.518;2023-01-29T03:34:10;6.47;;;5.20;;
22904;SDS011;11619;50.140;8.518;2023-01-29T03:36:43;6.05;;;4.72;;
22904;SDS011;11619;50.140;8.518;2023-01-29T03:39:14;5.95;;;4.43;;
22904;SDS011;11619;50.140;8.518;2023-01-29T03:42:03;4.95;;;4.55;;
22904;SDS011;11619;50.140;8.518;2023-01-29T03:44:33;4.57;;;4.18;;
22904;SDS011;11619;50.140;8.518;2023-01-29T03:52:18;6.50;;;5.32;;
22904;SDS011;11619;50.140;8.518;2023-01-29T03:54:53;6.40;;;5.72;;
22904;SDS011;11619;50.140;8.518;2023-01-29T04:00:18;6.47;;;5.60;;
22904;SDS011;11619;50.140;8.518;2023-01-29T04:05:29;8.32;;;5.95;;
22904;SDS011;11619;50.140;8.518;2023-01-29T04:08:01;7.07;;;5.55;;
22904;SDS011;11619;50.140;8.518;2023-01-29T04:10:30;6.35;;;5.75;;
22904;SDS011;11619;50.140;8.518;2023-01-29T04:13:01;6.75;;;5.70;;
22904;SDS011;11619;50.140;8.518;2023-01-29T04:15:31;6.78;;;6.13;;
22904;SDS011;11619;50.140;8.518;2023-01-29T04:18:06;6.90;;;6.20;;
22904;SDS011;11619;50.140;8.518;2023-01-29T04:20:33;7.03;;;6.32;;
22904;SDS011;11619;50.140;8.518;2023-01-29T04:23:01;6.75;;;5.93;;
22904;SDS011;11619;50.140;8.518;2023-01-29T04:25:29;7.00;;;5.80;;
22904;SDS011;11619;50.140;8.518;2023-01-29T04:28:05;8.35;;;6.38;;
22904;SDS011;11619;50.140;8.518;2023-01-29T04:30:45;6.60;;;5.90;;
22904;SDS011;11619;50.140;8.518;2023-01-29T04:36:35;5.93;;;5.40;;
22904;SDS011;11619;50.140;8.518;2023-01-29T04:39:19;6.88;;;5.53;;
22904;SDS011;11619;50.140;8.518;2023-01-29T04:42:05;6.22;;;5.55;;
22904;SDS011;11619;50.140;8.518;2023-01-29T04:50:15;10.68;;;5.68;;
22904;SDS011;11619;50.140;8.518;2023-01-29T04:52:50;6.28;;;5.68;;
22904;SDS011;11619;50.140;8.518;2023-01-29T04:58:11;6.18;;;5.50;;
22904;SDS011;11619;50.140;8.518;2023-01-29T05:00:52;5.78;;;5.20;;
22904;SDS011;11619;50.140;8.518;2023-01-29T05:03:20;5.78;;;5.22;;
22904;SDS011;11619;50.140;8.518;2023-01-29T05:05:49;5.00;;;4.60;;
22904;SDS011;11619;50.140;8.518;2023-01-29T05:08:17;5.88;;;5.35;;
22904;SDS011;11619;50.140;8.518;2023-01-29T05:10:45;6.32;;;5.68;;
22904;SDS011;11619;50.140;8.518;2023-01-29T05:13:13;5.75;;;5.20;;
22904;SDS011;11619;50.140;8.518;2023-01-29T05:15:44;6.90;;;6.20;;
22904;SDS011;11619;50.140;8.518;2023-01-29T05:18:15;9.32;;;6.72;;
22904;SDS011;11619;50.140;8.518;2023-01-29T05:20:42;7.40;;;6.70;;
22904;SDS011;11619;50.140;8.518;2023-01-29T05:23:15;7.38;;;6.68;;
22904;SDS011;11619;50.140;8.518;2023-01-29T05:25:46;8.38;;;7.28;;
22904;SDS011;11619;50.140;8.518;2023-01-29T05:28:13;6.68;;;6.07;;
22904;SDS011;11619;50.140;8.518;2023-01-29T05:30:44;8.38;;;7.47;;
22904;SDS011;11619;50.140;8.518;2023-01-29T05:33:19;10.73;;;8.02;;
22904;SDS011;11619;50.140;8.518;2023-01-29T05:35:49;8.85;;;7.95;;
22904;SDS011;11619;50.140;8.518;2023-01-29T05:38:17;10.43;;;9.02;;
22904;SDS011;11619;50.140;8.518;2023-01-29T05:40:44;10.75;;;9.05;;
22904;SDS011;11619;50.140;8.518;2023-01-29T05:43:12;13.93;;;10.20;;
22904;SDS011;11619;50.140;8.518;2023-01-29T05:45:50;11.80;;;10.55;;
22904;SDS011;11619;50.140;8.518;2023-01-29T05:48:17;13.70;;;11.23;;
22904;SDS011;11619;50.140;8.518;2023-01-29T05:50:44;12.52;;;10.68;;
22904;SDS011;11619;50.140;8.518;2023-01-29T05:53:10;13.13;;;11.02;;
22904;SDS011;11619;50.140;8.518;2023-01-29T05:55:36;13.35;;;11.95;;
22904;SDS011;11619;50.140;8.518;2023-01-29T05:58:03;13.55;;;11.57;;
22904;SDS011;11619;50.140;8.518;2023-01-29T06:00:31;13.10;;;11.27;;
22904;SDS011;11619;50.140;8.518;2023-01-29T06:02:57;12.80;;;11.50;;
22904;SDS011;11619;50.140;8.518;2023-01-29T06:05:24;16.88;;;11.32;;
22904;SDS011;11619;50.140;8.518;2023-01-29T06:07:50;12.60;;;10.93;;
22904;SDS011;11619;50.140;8.518;2023-01-29T06:10:17;13.38;;;11.40;;
22904;SDS011;11619;50.140;8.518;2023-01-29T06:12:44;13.15;;;11.57;;
22904;SDS011;11619;50.140;8.518;2023-01-29T06:15:11;13.68;;;11.32;;
22904;SDS011;11619;50.140;8.518;2023-01-29T06:17:38;12.35;;;11.07;;
22904;SDS011;11619;50.140;8.518;2023-01-29T06:20:05;13.60;;;11.48;;
22904;SDS011;11619;50.140;8.518;2023-01-29T06:22:32;13.88;;;12.30;;
22904;SDS011;11619;50.140;8.518;2023-01-29T06:24:58;12.75;;;11.07;;
22904;SDS011;11619;50.140;8.518;2023-01-29T06:27:25;12.98;;;10.82;;
22904;SDS011;11619;50.140;8.518;2023-01-29T06:29:51;13.23;;;11.02;;
22904;SDS011;11619;50.140;8.518;2023-01-29T06:32:18;13.98;;;11.63;;
22904;SDS011;11619;50.140;8.518;2023-01-29T06:34:44;11.73;;;10.52;;
22904;SDS011;11619;50.140;8.518;2023-01-29T06:37:14;16.05;;;12.07;;
22904;SDS011;11619;50.140;8.518;2023-01-29T06:39:41;13.10;;;11.70;;
22904;SDS011;11619;50.140;8.518;2023-01-29T06:42:07;12.48;;;11.15;;
22904;SDS011;11619;50.140;8.518;2023-01-29T06:44:35;13.73;;;11.82;;
22904;SDS011;11619;50.140;8.518;2023-01-29T06:47:01;16.25;;;12.10;;
22904;SDS011;11619;50.140;8.518;2023-01-29T06:49:27;12.75;;;11.05;;
22904;SDS011;11619;50.140;8.518;2023-01-29T06:51:54;13.75;;;11.88;;
22904;SDS011;11619;50.140;8.518;2023-01-29T06:54:20;12.77;;;11.27;;
22904;SDS011;11619;50.140;8.518;2023-01-29T06:56:47;13.30;;;11.27;;
22904;SDS011;11619;50.140;8.518;2023-01-29T06:59:13;15.63;;;12.52;;
22904;SDS011;11619;50.140;8.518;2023-01-29T07:01:40;14.55;;;11.35;;
22904;SDS011;11619;50.140;8.518;2023-01-29T07:04:10;14.73;;;11.63;;
22904;SDS011;11619;50.140;8.518;2023-01-29T07:06:36;15.07;;;11.93;;
22904;SDS011;11619;50.140;8.518;2023-01-29T07:09:03;14.95;;;11.68;;
22904;SDS011;11619;50.140;8.518;2023-01-29T07:11:29;12.52;;;11.20;;
22904;SDS011;11619;50.140;8.518;2023-01-29T07:13:56;14.88;;;11.57;;
22904;SDS011;11619;50.140;8.518;2023-01-29T07:16:22;14.63;;;12.60;;
22904;SDS011;11619;50.140;8.518;2023-01-29T07:18:50;12.52;;;11.23;;
22904;SDS011;11619;50.140;8.518;2023-01-29T07:21:16;13.52;;;11.38;;
22904;SDS011;11619;50.140;8.518;2023-01-29T07:23:43;14.70;;;11.98;;
22904;SDS011;11619;50.140;8.518;2023-01-29T07:26:09;14.07;;;11.80;;
22904;SDS011;11619;50.140;8.518;2023-01-29T07:28:36;14.45;;;12.13;;
22904;SDS011;11619;50.140;8.518;2023-01-29T07:31:03;14.02;;;12.20;;
22904;SDS011;11619;50.140;8.518;2023-01-29T07:33:30;16.02;;;12.15;;
22904;SDS011;11619;50.140;8.518;2023-01-29T07:35:57;15.75;;;11.98;;
22904;SDS011;11619;50.140;8.518;2023-01-29T07:38:24;15.02;;;12.57;;
22904;SDS011;11619;50.140;8.518;2023-01-29T07:40:51;12.30;;;11.00;;
22904;SDS011;11619;50.140;8.518;2023-01-29T07:43:17;15.68;;;12.57;;
22904;SDS011;11619;50.140;8.518;2023-01-29T07:45:44;14.43;;;12.57;;
22904;SDS011;11619;50.140;8.518;2023-01-29T07:48:11;15.10;;;12.65;;
22904;SDS011;11619;50.140;8.518;2023-01-29T07:50:38;13.75;;;12.32;;
22904;SDS011;11619;50.140;8.518;2023-01-29T07:53:05;13.60;;;12.02;;
22904;SDS011;11619;50.140;8.518;2023-01-29T07:55:32;16.42;;;12.45;;
22904;SDS011;11619;50.140;8.518;2023-01-29T07:58:00;13.90;;;12.27;;
22904;SDS011;11619;50.140;8.518;2023-01-29T08:00:28;13.25;;;11.27;;
22904;SDS011;11619;50.140;8.518;2023-01-29T08:03:01;13.98;;;12.35;;
22904;SDS011;11619;50.140;8.518;2023-01-29T08:05:37;13.82;;;11.55;;
22904;SDS011;11619;50.140;8.518;2023-01-29T08:08:04;13.52;;;12.10;;
22904;SDS011;11619;50.140;8.518;2023-01-29T08:10:33;15.38;;;12.88;;
22904;SDS011;11619;50.140;8.518;2023-01-29T08:13:00;13.88;;;12.27;;
22904;SDS011;11619;50.140;8.518;2023-01-29T08:15:28;14.45;;;12.65;;
22904;SDS011;11619;50.140;8.518;2023-01-29T08:17:54;15.57;;;12.25;;
22904;SDS011;11619;50.140;8.518;2023-01-29T08:20:23;13.57;;;12.05;;
22904;SDS011;11619;50.140;8.518;2023-01-29T08:22:58;13.95;;;12.20;;
22904;SDS011;11619;50.140;8.518;2023-01-29T08:25:28;14.75;;;11.60;;
22904;SDS011;11619;50.140;8.518;2023-01-29T08:27:55;15.02;;;12.57;;
22904;SDS011;11619;50.140;8.518;2023-01-29T08:30:23;16.58;;;12.90;;
22904;SDS011;11619;50.140;8.518;2023-01-29T08:32:59;15.02;;;13.02;;
22904;SDS011;11619;50.140;8.518;2023-01-29T08:35:25;13.95;;;12.25;;
22904;SDS011;11619;50.140;8.518;2023-01-29T08:37:53;14.25;;;12.75;;
22904;SDS011;11619;50.140;8.518;2023-01-29T08:40:20;15.07;;;12.35;;
22904;SDS011;11619;50.140;8.518;2023-01-29T08:42:47;15.43;;;12.68;;
22904;SDS011;11619;50.140;8.518;2023-01-29T08:45:13;15.45;;;12.10;;
22904;SDS011;11619;50.140;8.518;2023-01-29T08:47:46;14.05;;;12.10;;
22904;SDS011;11619;50.140;8.518;2023-01-29T08:50:13;12.98;;;11.23;;
22904;SDS011;11619;50.140;8.518;2023-01-29T08:52:41;15.27;;;12.55;;
22904;SDS011;11619;50.140;8.518;2023-01-29T08:55:08;14.35;;;12.13;;
22904;SDS011;11619;50.140;8.518;2023-01-29T08:57:35;14.30;;;12.38;;
22904;SDS011;11619;50.140;8.518;2023-01-29T09:00:02;14.70;;;12.82;;
22904;SDS011;11619;50.140;8.518;2023-01-29T09:02:30;13.18;;;11.85;;
22904;SDS011;11619;50.140;8.518;2023-01-29T09:04:57;17.05;;;13.50;;
22904;SDS011;11619;50.140;8.518;2023-01-29T09:07:23;15.18;;;12.82;;
22904;SDS011;11619;50.140;8.518;2023-01-29T09:09:49;15.38;;;13.18;;
22904;SDS011;11619;50.140;8.518;2023-01-29T09:12:16;16.63;;;14.18;;
22904;SDS011;11619;50.140;8.518;2023-01-29T09:14:42;16.40;;;13.68;;
22904;SDS011;11619;50.140;8.518;2023-01-29T09:17:09;16.50;;;13.45;;
22904;SDS011;11619;50.140;8.518;2023-01-29T09:19:35;16.23;;;13.20;;
22904;SDS011;11619;50.140;8.518;2023-01-29T09:22:02;16.58;;;13.27;;
22904;SDS011;11619;50.140;8.518;2023-01-29T09:24:28;17.50;;;14.30;;
22904;SDS011;11619;50.140;8.518;2023-01-29T09:26:55;19.48;;;15.73;;
22904;SDS011;11619;50.140;8.518;2023-01-29T09:29:21;28.63;;;20.52;;
22904;SDS011;11619;50.140;8.518;2023-01-29T09:31:47;28.33;;;20.38;;
22904;SDS011;11619;50.140;8.518;2023-01-29T09:34:14;30.75;;;19.92;;
22904;SDS011;11619;50.140;8.518;2023-01-29T09:36:40;26.88;;;21.52;;
22904;SDS011;11619;50.140;8.518;2023-01-29T09:39:07;26.10;;;20.90;;
22904;SDS011;11619;50.140;8.518;2023-01-29T09:46:53;24.33;;;18.38;;
22904;SDS011;11619;50.140;8.518;2023-01-29T09:49:36;22.40;;;18.13;;
22904;SDS011;11619;50.140;8.518;2023-01-29T09:52:10;17.80;;;14.52;;
22904;SDS011;11619;50.140;8.518;2023-01-29T10:00:15;21.88;;;17.60;;
22904;SDS011;11619;50.140;8.518;2023-01-29T10:15:05;20.00;;;17.40;;
22904;SDS011;11619;50.140;8.518;2023-01-29T10:17:43;17.10;;;15.25;;
22904;SDS011;11619;50.140;8.518;2023-01-29T10:23:26;17.58;;;15.57;;
22904;SDS011;11619;50.140;8.518;2023-01-29T10:25:57;19.15;;;15.82;;
22904;SDS011;11619;50.140;8.518;2023-01-29T10:28:34;18.83;;;15.60;;
22904;SDS011;11619;50.140;8.518;2023-01-29T10:31:12;21.48;;;16.30;;
22904;SDS011;11619;50.140;8.518;2023-01-29T10:36:50;19.30;;;16.38;;
22904;SDS011;11619;50.140;8.518;2023-01-29T10:39:18;18.55;;;16.05;;
22904;SDS011;11619;50.140;8.518;2023-01-29T10:41:57;19.77;;;16.25;;
22904;SDS011;11619;50.140;8.518;2023-01-29T10:52:57;18.05;;;14.38;;
22904;SDS011;11619;50.140;8.518;2023-01-29T11:01:03;16.35;;;14.20;;
22904;SDS011;11619;50.140;8.518;2023-01-29T11:03:30;15.55;;;13.95;;
22904;SDS011;11619;50.140;8.518;2023-01-29T11:08:30;15.15;;;12.13;;
22904;SDS011;11619;50.140;8.518;2023-01-29T11:13:39;15.25;;;13.63;;
22904;SDS011;11619;50.140;8.518;2023-01-29T11:21:16;13.05;;;11.43;;
22904;SDS011;11619;50.140;8.518;2023-01-29T11:23:43;13.93;;;11.60;;
22904;SDS011;11619;50.140;8.518;2023-01-29T11:26:10;12.10;;;10.90;;
22904;SDS011;11619;50.140;8.518;2023-01-29T11:28:39;13.27;;;11.30;;
22904;SDS011;11619;50.140;8.518;2023-01-29T11:31:17;17.92;;;12.93;;
22904;SDS011;11619;50.140;8.518;2023-01-29T11:33:52;14.30;;;11.85;;
22904;SDS011;11619;50.140;8.518;2023-01-29T11:36:29;13.93;;;12.20;;
22904;SDS011;11619;50.140;8.518;2023-01-29T11:39:12;13.50;;;11.80;;
22904;SDS011;11619;50.140;8.518;2023-01-29T11:41:43;14.48;;;11.52;;
22904;SDS011;11619;50.140;8.518;2023-01-29T11:44:18;12.68;;;11.20;;
22904;SDS011;11619;50.140;8.518;2023-01-29T11:46:46;11.45;;;10.05;;
22904;SDS011;11619;50.140;8.518;2023-01-29T11:49:30;10.57;;;9.55;;
22904;SDS011;11619;50.140;8.518;2023-01-29T11:51:58;10.52;;;9.48;;
22904;SDS011;11619;50.140;8.518;2023-01-29T11:54:28;12.38;;;11.05;;
22904;SDS011;11619;50.140;8.518;2023-01-29T11:56:58;11.15;;;10.05;;
22904;SDS011;11619;50.140;8.518;2023-01-29T11:59:34;13.00;;;10.57;;
22904;SDS011;11619;50.140;8.518;2023-01-29T12:02:03;11.25;;;9.57;;
22904;SDS011;11619;50.140;8.518;2023-01-29T12:04:31;10.73;;;9.55;;
22904;SDS011;11619;50.140;8.518;2023-01-29T12:06:58;12.10;;;10.00;;
22904;SDS011;11619;50.140;8.518;2023-01-29T12:09:25;12.95;;;9.93;;
22904;SDS011;11619;50.140;8.518;2023-01-29T12:11:53;15.18;;;10.95;;
22904;SDS011;11619;50.140;8.518;2023-01-29T12:14:29;9.95;;;8.90;;
22904;SDS011;11619;50.140;8.518;2023-01-29T12:17:42;11.65;;;9.18;;
22904;SDS011;11619;50.140;8.518;2023-01-29T12:19:52;10.95;;;9.73;;
22904;SDS011;11619;50.140;8.518;2023-01-29T12:22:24;11.75;;;10.40;;
22904;SDS011;11619;50.140;8.518;2023-01-29T12:24:57;10.73;;;9.30;;
22904;SDS011;11619;50.140;8.518;2023-01-29T12:27:30;12.13;;;9.27;;
22904;SDS011;11619;50.140;8.518;2023-01-29T12:30:17;11.93;;;10.05;;
22904;SDS011;11619;50.140;8.518;2023-01-29T12:35:43;11.20;;;10.10;;
22904;SDS011;11619;50.140;8.518;2023-01-29T12:40:57;14.63;;;10.67;;
22904;SDS011;11619;50.140;8.518;2023-01-29T12:45:58;12.15;;;10.95;;
22904;SDS011;11619;50.140;8.518;2023-01-29T12:48:29;12.02;;;10.88;;
22904;SDS011;11619;50.140;8.518;2023-01-29T12:51:02;11.43;;;10.23;;
22904;SDS011;11619;50.140;8.518;2023-01-29T12:53:36;11.68;;;9.93;;
22904;SDS011;11619;50.140;8.518;2023-01-29T12:56:06;11.80;;;10.40;;
22904;SDS011;11619;50.140;8.518;2023-01-29T12:58:42;13.38;;;11.15;;
22904;SDS011;11619;50.140;8.518;2023-01-29T13:01:12;11.95;;;10.43;;
22904;SDS011;11619;50.140;8.518;2023-01-29T13:06:35;11.23;;;10.13;;
22904;SDS011;11619;50.140;8.518;2023-01-29T13:09:08;12.55;;;11.25;;
22904;SDS011;11619;50.140;8.518;2023-01-29T13:17:34;12.43;;;10.77;;
22904;SDS011;11619;50.140;8.518;2023-01-29T13:20:03;11.02;;;9.95;;
22904;SDS011;11619;50.140;8.518;2023-01-29T13:22:37;11.52;;;10.32;;
22904;SDS011;11619;50.140;8.518;2023-01-29T13:25:05;11.52;;;10.32;;
22904;SDS011;11619;50.140;8.518;2023-01-29T13:27:34;12.25;;;10.60;;
22904;SDS011;11619;50.140;8.518;2023-01-29T13:30:02;11.48;;;10.27;;
22904;SDS011;11619;50.140;8.518;2023-01-29T13:32:30;12.13;;;10.50;;
22904;SDS011;11619;50.140;8.518;2023-01-29T13:34:58;10.93;;;9.57;;
22904;SDS011;11619;50.140;8.518;2023-01-29T13:37:32;12.02;;;10.40;;
22904;SDS011;11619;50.140;8.518;2023-01-29T13:40:00;11.55;;;10.35;;
22904;SDS011;11619;50.140;8.518;2023-01-29T13:42:36;11.68;;;10.10;;
22904;SDS011;11619;50.140;8.518;2023-01-29T13:45:06;14.20;;;10.32;;
22904;SDS011;11619;50.140;8.518;2023-01-29T13:47:34;11.02;;;9.85;;
22904;SDS011;11619;50.140;8.518;2023-01-29T13:50:06;11.20;;;9.10;;
22904;SDS011;11619;50.140;8.518;2023-01-29T13:52:38;12.73;;;10.80;;
22904;SDS011;11619;50.140;8.518;2023-01-29T13:57:49;11.00;;;9.52;;
22904;SDS011;11619;50.140;8.518;2023-01-29T14:10:30;14.87;;;10.47;;
22904;SDS011;11619;50.140;8.518;2023-01-29T14:18:22;10.75;;;9.73;;
22904;SDS011;11619;50.140;8.518;2023-01-29T14:20:52;10.80;;;9.68;;
22904;SDS011;11619;50.140;8.518;2023-01-29T14:23:40;11.77;;;10.52;;
22904;SDS011;11619;50.140;8.518;2023-01-29T14:29:37;11.55;;;10.35;;
22904;SDS011;11619;50.140;8.518;2023-01-29T14:31:48;11.00;;;9.57;;
22904;SDS011;11619;50.140;8.518;2023-01-29T14:34:34;10.68;;;9.57;;
22904;SDS011;11619;50.140;8.518;2023-01-29T14:39:53;10.85;;;9.75;;
22904;SDS011;11619;50.140;8.518;2023-01-29T14:42:22;10.85;;;9.05;;
22904;SDS011;11619;50.140;8.518;2023-01-29T14:52:37;12.05;;;10.00;;
22904;SDS011;11619;50.140;8.518;2023-01-29T14:55:13;11.02;;;9.80;;
22904;SDS011;11619;50.140;8.518;2023-01-29T14:57:47;10.75;;;9.27;;
22904;SDS011;11619;50.140;8.518;2023-01-29T15:00:25;9.50;;;8.50;;
22904;SDS011;11619;50.140;8.518;2023-01-29T15:02:53;9.70;;;8.43;;
22904;SDS011;11619;50.140;8.518;2023-01-29T15:05:28;9.77;;;8.77;;
22904;SDS011;11619;50.140;8.518;2023-01-29T15:07:58;10.48;;;9.02;;
22904;SDS011;11619;50.140;8.518;2023-01-29T15:10:31;9.80;;;8.82;;
22904;SDS011;11619;50.140;8.518;2023-01-29T15:13:51;10.07;;;9.13;;
22904;SDS011;11619;50.140;8.518;2023-01-29T15:16:24;12.18;;;8.95;;
22904;SDS011;11619;50.140;8.518;2023-01-29T15:18:56;10.80;;;9.70;;
22904;SDS011;11619;50.140;8.518;2023-01-29T15:21:33;10.52;;;9.48;;
22904;SDS011;11619;50.140;8.518;2023-01-29T15:24:03;9.65;;;8.65;;
22904;SDS011;11619;50.140;8.518;2023-01-29T15:26:32;10.10;;;9.10;;
22904;SDS011;11619;50.140;8.518;2023-01-29T15:29:00;13.35;;;9.60;;
22904;SDS011;11619;50.140;8.518;2023-01-29T15:31:30;11.50;;;10.30;;
22904;SDS011;11619;50.140;8.518;2023-01-29T15:33:56;11.73;;;10.52;;
22904;SDS011;11619;50.140;8.518;2023-01-29T15:36:28;11.48;;;9.95;;
22904;SDS011;11619;50.140;8.518;2023-01-29T15:41:36;10.80;;;9.70;;
22904;SDS011;11619;50.140;8.518;2023-01-29T15:44:07;11.00;;;9.82;;
22904;SDS011;11619;50.140;8.518;2023-01-29T15:46:39;13.60;;;10.75;;
22904;SDS011;11619;50.140;8.518;2023-01-29T15:49:07;11.80;;;9.70;;
22904;SDS011;11619;50.140;8.518;2023-01-29T15:51:36;13.68;;;10.85;;
22904;SDS011;11619;50.140;8.518;2023-01-29T15:54:04;13.27;;;10.50;;
22904;SDS011;11619;50.140;8.518;2023-01-29T15:56:36;12.70;;;11.40;;
22904;SDS011;11619;50.140;8.518;2023-01-29T15:59:05;14.82;;;13.23;;
22904;SDS011;11619;50.140;8.518;2023-01-29T16:01:35;17.80;;;13.70;;
22904;SDS011;11619;50.140;8.518;2023-01-29T16:04:01;14.13;;;11.73;;
22904;SDS011;11619;50.140;8.518;2023-01-29T16:06:37;21.70;;;14.43;;
22904;SDS011;11619;50.140;8.518;2023-01-29T16:09:05;12.70;;;11.20;;
22904;SDS011;11619;50.140;8.518;2023-01-29T16:11:35;12.95;;;11.50;;
22904;SDS011;11619;50.140;8.518;2023-01-29T16:14:02;23.58;;;18.40;;
22904;SDS011;11619;50.140;8.518;2023-01-29T16:16:29;21.58;;;17.38;;
22904;SDS011;11619;50.140;8.518;2023-01-29T16:18:56;26.75;;;17.85;;
22904;SDS011;11619;50.140;8.518;2023-01-29T16:24:13;21.35;;;17.25;;
22904;SDS011;11619;50.140;8.518;2023-01-29T16:26:47;30.38;;;22.65;;
22904;SDS011;11619;50.140;8.518;2023-01-29T16:29:16;42.63;;;28.88;;
22904;SDS011;11619;50.140;8.518;2023-01-29T16:31:47;43.83;;;31.88;;
22904;SDS011;11619;50.140;8.518;2023-01-29T16:34:24;40.90;;;30.65;;
22904;SDS011;11619;50.140;8.518;2023-01-29T16:36:52;89.85;;;58.67;;
22904;SDS011;11619;50.140;8.518;2023-01-29T16:39:20;35.42;;;25.00;;
22904;SDS011;11619;50.140;8.518;2023-01-29T16:47:22;15.20;;;13.32;;
22904;SDS011;11619;50.140;8.518;2023-01-29T16:49:59;13.15;;;11.80;;
22904;SDS011;11619;50.140;8.518;2023-01-29T16:52:54;14.50;;;11.27;;
22904;SDS011;11619;50.140;8.518;2023-01-29T16:55:23;13.45;;;11.05;;
22904;SDS011;11619;50.140;8.518;2023-01-29T16:57:54;14.70;;;11.68;;
22904;SDS011;11619;50.140;8.518;2023-01-29T17:00:25;12.35;;;10.90;;
22904;SDS011;11619;50.140;8.518;2023-01-29T17:02:53;12.13;;;10.70;;
22904;SDS011;11619;50.140;8.518;2023-01-29T17:05:28;14.63;;;11.77;;
22904;SDS011;11619;50.140;8.518;2023-01-29T17:07:56;22.55;;;17.27;;
22904;SDS011;11619;50.140;8.518;2023-01-29T17:10:23;22.50;;;17.20;;
22904;SDS011;11619;50.140;8.518;2023-01-29T17:12:55;21.40;;;16.25;;
22904;SDS011;11619;50.140;8.518;2023-01-29T17:18:27;14.05;;;12.07;;
22904;SDS011;11619;50.140;8.518;2023-01-29T17:20:54;12.43;;;10.60;;
22904;SDS011;11619;50.140;8.518;2023-01-29T17:23:24;12.10;;;10.77;;
22904;SDS011;11619;50.140;8.518;2023-01-29T17:25:50;13.20;;;10.80;;
22904;SDS011;11619;50.140;8.518;2023-01-29T17:28:17;20.25;;;15.38;;
22904;SDS011;11619;50.140;8.518;2023-01-29T17:30:43;16.52;;;13.82;;
22904;SDS011;11619;50.140;8.518;2023-01-29T17:33:25;15.55;;;12.27;;